sensor_id;sensor_type;location;lat;lon;timestamp;P1;durP1;ratioP1;P2;durP2;ratioP2
6354;SDS011;3210;48.708;9.030;2023-12-04T00:00:10;15.13;;;7.37;;
6354;SDS011;3210;48.708;9.030;2023-12-04T00:02:53;13.13;;;6.97;;
6354;SDS011;3210;48.708;9.030;2023-12-04T00:09:05;12.60;;;6.90;;
6354;SDS011;3210;48.708;9.030;2023-12-04T00:15:31;11.20;;;7.00;;
6354;SDS011;3210;48.708;9.030;2023-12-04T00:18:14;13.60;;;6.77;;
6354;SDS011;3210;48.708;9.030;2023-12-04T00:20:57;10.43;;;6.07;;
6354;SDS011;3210;48.708;9.030;2023-12-04T00:23:46;14.03;;;7.50;;
6354;SDS011;3210;48.708;9.030;2023-12-04T00:26:29;11.90;;;7.10;;
6354;SDS011;3210;48.708;9.030;2023-12-04T00:29:09;11.67;;;7.43;;
6354;SDS011;3210;48.708;9.030;2023-12-04T00:31:38;12.00;;;6.17;;
6354;SDS011;3210;48.708;9.030;2023-12-04T00:34:20;10.67;;;6.80;;
6354;SDS011;3210;48.708;9.030;2023-12-04T00:36:51;13.53;;;7.50;;
6354;SDS011;3210;48.708;9.030;2023-12-04T00:39:22;11.10;;;7.17;;
6354;SDS011;3210;48.708;9.030;2023-12-04T00:41:52;12.20;;;7.27;;
6354;SDS011;3210;48.708;9.030;2023-12-04T00:44:22;11.70;;;7.90;;
6354;SDS011;3210;48.708;9.030;2023-12-04T00:46:52;14.40;;;7.20;;
6354;SDS011;3210;48.708;9.030;2023-12-04T00:49:21;10.90;;;7.27;;
6354;SDS011;3210;48.708;9.030;2023-12-04T00:51:51;13.00;;;7.77;;
6354;SDS011;3210;48.708;9.030;2023-12-04T00:54:22;12.43;;;7.10;;
6354;SDS011;3210;48.708;9.030;2023-12-04T01:00:15;14.40;;;6.80;;
6354;SDS011;3210;48.708;9.030;2023-12-04T01:02:45;12.30;;;6.53;;
6354;SDS011;3210;48.708;9.030;2023-12-04T01:05:15;11.23;;;6.57;;
6354;SDS011;3210;48.708;9.030;2023-12-04T01:07:49;11.43;;;6.67;;
6354;SDS011;3210;48.708;9.030;2023-12-04T01:10:21;9.33;;;5.47;;
6354;SDS011;3210;48.708;9.030;2023-12-04T01:12:56;9.53;;;6.53;;
6354;SDS011;3210;48.708;9.030;2023-12-04T01:15:29;11.97;;;6.83;;
6354;SDS011;3210;48.708;9.030;2023-12-04T01:17:59;13.00;;;7.07;;
6354;SDS011;3210;48.708;9.030;2023-12-04T01:20:32;7.70;;;5.80;;
6354;SDS011;3210;48.708;9.030;2023-12-04T01:23:07;10.77;;;6.77;;
6354;SDS011;3210;48.708;9.030;2023-12-04T01:25:38;11.77;;;5.57;;
6354;SDS011;3210;48.708;9.030;2023-12-04T01:28:10;12.73;;;6.40;;
6354;SDS011;3210;48.708;9.030;2023-12-04T01:30:44;12.07;;;7.43;;
6354;SDS011;3210;48.708;9.030;2023-12-04T01:33:15;11.13;;;6.87;;
6354;SDS011;3210;48.708;9.030;2023-12-04T01:35:46;6.97;;;5.80;;
6354;SDS011;3210;48.708;9.030;2023-12-04T01:38:16;13.70;;;6.67;;
6354;SDS011;3210;48.708;9.030;2023-12-04T01:40:44;11.90;;;5.77;;
6354;SDS011;3210;48.708;9.030;2023-12-04T01:43:14;12.37;;;6.73;;
6354;SDS011;3210;48.708;9.030;2023-12-04T01:45:47;9.23;;;5.20;;
6354;SDS011;3210;48.708;9.030;2023-12-04T01:48:21;8.87;;;4.80;;
6354;SDS011;3210;48.708;9.030;2023-12-04T01:50:52;11.57;;;5.50;;
6354;SDS011;3210;48.708;9.030;2023-12-04T01:53:22;10.27;;;5.70;;
6354;SDS011;3210;48.708;9.030;2023-12-04T01:55:53;8.70;;;4.97;;
6354;SDS011;3210;48.708;9.030;2023-12-04T01:58:26;8.43;;;5.10;;
6354;SDS011;3210;48.708;9.030;2023-12-04T02:01:00;9.87;;;6.27;;
6354;SDS011;3210;48.708;9.030;2023-12-04T02:03:30;9.20;;;6.70;;
6354;SDS011;3210;48.708;9.030;2023-12-04T02:06:02;6.57;;;4.80;;
6354;SDS011;3210;48.708;9.030;2023-12-04T02:08:39;11.67;;;6.20;;
6354;SDS011;3210;48.708;9.030;2023-12-04T02:11:09;12.63;;;6.30;;
6354;SDS011;3210;48.708;9.030;2023-12-04T02:13:39;9.83;;;5.77;;
6354;SDS011;3210;48.708;9.030;2023-12-04T02:16:10;7.70;;;5.47;;
6354;SDS011;3210;48.708;9.030;2023-12-04T02:18:44;10.20;;;5.90;;
6354;SDS011;3210;48.708;9.030;2023-12-04T02:21:14;10.40;;;5.40;;
6354;SDS011;3210;48.708;9.030;2023-12-04T02:23:49;9.50;;;6.40;;
6354;SDS011;3210;48.708;9.030;2023-12-04T02:26:22;10.50;;;5.67;;
6354;SDS011;3210;48.708;9.030;2023-12-04T02:29:01;12.10;;;6.40;;
6354;SDS011;3210;48.708;9.030;2023-12-04T02:31:34;10.17;;;5.70;;
6354;SDS011;3210;48.708;9.030;2023-12-04T02:34:06;7.27;;;5.33;;
6354;SDS011;3210;48.708;9.030;2023-12-04T02:36:37;7.70;;;4.50;;
6354;SDS011;3210;48.708;9.030;2023-12-04T02:39:16;11.20;;;6.80;;
6354;SDS011;3210;48.708;9.030;2023-12-04T02:41:50;9.77;;;6.67;;
6354;SDS011;3210;48.708;9.030;2023-12-04T02:44:19;10.93;;;5.60;;
6354;SDS011;3210;48.708;9.030;2023-12-04T02:46:50;8.70;;;5.53;;
6354;SDS011;3210;48.708;9.030;2023-12-04T02:49:20;12.00;;;6.30;;
6354;SDS011;3210;48.708;9.030;2023-12-04T02:51:51;9.30;;;5.60;;
6354;SDS011;3210;48.708;9.030;2023-12-04T02:54:23;7.20;;;5.43;;
6354;SDS011;3210;48.708;9.030;2023-12-04T02:56:53;9.80;;;6.03;;
6354;SDS011;3210;48.708;9.030;2023-12-04T02:59:26;7.83;;;6.23;;
6354;SDS011;3210;48.708;9.030;2023-12-04T03:01:57;15.17;;;6.97;;
6354;SDS011;3210;48.708;9.030;2023-12-04T03:04:30;10.80;;;6.60;;
6354;SDS011;3210;48.708;9.030;2023-12-04T03:07:13;9.20;;;5.87;;
6354;SDS011;3210;48.708;9.030;2023-12-04T03:09:52;12.57;;;8.90;;
6354;SDS011;3210;48.708;9.030;2023-12-04T03:12:27;12.13;;;6.87;;
6354;SDS011;3210;48.708;9.030;2023-12-04T03:15:02;11.50;;;6.30;;
6354;SDS011;3210;48.708;9.030;2023-12-04T03:17:38;11.80;;;6.80;;
6354;SDS011;3210;48.708;9.030;2023-12-04T03:20:08;9.93;;;6.03;;
6354;SDS011;3210;48.708;9.030;2023-12-04T03:22:47;10.27;;;6.90;;
6354;SDS011;3210;48.708;9.030;2023-12-04T03:25:25;8.80;;;5.20;;
6354;SDS011;3210;48.708;9.030;2023-12-04T03:27:55;13.37;;;6.73;;
6354;SDS011;3210;48.708;9.030;2023-12-04T03:30:25;10.13;;;5.40;;
6354;SDS011;3210;48.708;9.030;2023-12-04T03:32:56;10.20;;;6.50;;
6354;SDS011;3210;48.708;9.030;2023-12-04T03:35:27;9.93;;;5.77;;
6354;SDS011;3210;48.708;9.030;2023-12-04T03:37:57;11.20;;;6.80;;
6354;SDS011;3210;48.708;9.030;2023-12-04T03:40:29;10.83;;;6.20;;
6354;SDS011;3210;48.708;9.030;2023-12-04T03:42:59;11.50;;;6.00;;
6354;SDS011;3210;48.708;9.030;2023-12-04T03:45:30;11.23;;;5.73;;
6354;SDS011;3210;48.708;9.030;2023-12-04T03:47:59;13.30;;;6.97;;
6354;SDS011;3210;48.708;9.030;2023-12-04T03:50:37;16.33;;;6.23;;
6354;SDS011;3210;48.708;9.030;2023-12-04T03:53:15;10.10;;;5.50;;
6354;SDS011;3210;48.708;9.030;2023-12-04T03:55:51;10.03;;;6.00;;
6354;SDS011;3210;48.708;9.030;2023-12-04T03:58:25;11.93;;;6.80;;
6354;SDS011;3210;48.708;9.030;2023-12-04T04:01:12;9.73;;;6.03;;
6354;SDS011;3210;48.708;9.030;2023-12-04T04:03:48;11.47;;;6.03;;
6354;SDS011;3210;48.708;9.030;2023-12-04T04:06:34;11.67;;;6.33;;
6354;SDS011;3210;48.708;9.030;2023-12-04T04:09:22;11.60;;;6.77;;
6354;SDS011;3210;48.708;9.030;2023-12-04T04:12:14;9.17;;;5.37;;
6354;SDS011;3210;48.708;9.030;2023-12-04T04:14:49;18.20;;;6.20;;
6354;SDS011;3210;48.708;9.030;2023-12-04T04:17:33;12.63;;;6.10;;
6354;SDS011;3210;48.708;9.030;2023-12-04T04:20:06;9.50;;;5.40;;
6354;SDS011;3210;48.708;9.030;2023-12-04T04:22:38;11.93;;;7.50;;
6354;SDS011;3210;48.708;9.030;2023-12-04T04:25:12;13.10;;;7.07;;
6354;SDS011;3210;48.708;9.030;2023-12-04T04:27:44;11.57;;;6.23;;
6354;SDS011;3210;48.708;9.030;2023-12-04T04:30:15;10.80;;;5.57;;
6354;SDS011;3210;48.708;9.030;2023-12-04T04:32:48;10.07;;;5.83;;
6354;SDS011;3210;48.708;9.030;2023-12-04T04:35:20;12.60;;;6.90;;
6354;SDS011;3210;48.708;9.030;2023-12-04T04:37:50;10.97;;;6.83;;
6354;SDS011;3210;48.708;9.030;2023-12-04T04:40:21;13.50;;;6.30;;
6354;SDS011;3210;48.708;9.030;2023-12-04T04:42:52;9.53;;;6.00;;
6354;SDS011;3210;48.708;9.030;2023-12-04T04:45:22;10.83;;;6.90;;
6354;SDS011;3210;48.708;9.030;2023-12-04T04:48:02;12.00;;;6.43;;
6354;SDS011;3210;48.708;9.030;2023-12-04T04:50:31;15.27;;;5.87;;
6354;SDS011;3210;48.708;9.030;2023-12-04T04:53:01;15.57;;;7.17;;
6354;SDS011;3210;48.708;9.030;2023-12-04T04:58:53;10.97;;;6.50;;
6354;SDS011;3210;48.708;9.030;2023-12-04T05:01:23;11.93;;;6.23;;
6354;SDS011;3210;48.708;9.030;2023-12-04T05:03:53;8.53;;;5.47;;
6354;SDS011;3210;48.708;9.030;2023-12-04T05:06:23;11.40;;;6.40;;
6354;SDS011;3210;48.708;9.030;2023-12-04T05:08:53;11.37;;;6.33;;
6354;SDS011;3210;48.708;9.030;2023-12-04T05:11:25;13.60;;;7.40;;
6354;SDS011;3210;48.708;9.030;2023-12-04T05:13:58;10.67;;;5.97;;
6354;SDS011;3210;48.708;9.030;2023-12-04T05:16:28;13.27;;;7.30;;
6354;SDS011;3210;48.708;9.030;2023-12-04T05:18:59;11.83;;;8.40;;
6354;SDS011;3210;48.708;9.030;2023-12-04T05:21:28;19.40;;;7.60;;
6354;SDS011;3210;48.708;9.030;2023-12-04T05:23:57;11.13;;;6.57;;
6354;SDS011;3210;48.708;9.030;2023-12-04T05:26:27;9.47;;;6.43;;
6354;SDS011;3210;48.708;9.030;2023-12-04T05:28:59;14.70;;;8.00;;
6354;SDS011;3210;48.708;9.030;2023-12-04T05:31:29;17.03;;;7.53;;
6354;SDS011;3210;48.708;9.030;2023-12-04T05:34:01;10.57;;;7.00;;
6354;SDS011;3210;48.708;9.030;2023-12-04T05:36:51;10.50;;;6.53;;
6354;SDS011;3210;48.708;9.030;2023-12-04T05:39:21;13.70;;;7.33;;
6354;SDS011;3210;48.708;9.030;2023-12-04T05:41:53;14.27;;;8.30;;
6354;SDS011;3210;48.708;9.030;2023-12-04T05:44:25;17.77;;;9.27;;
6354;SDS011;3210;48.708;9.030;2023-12-04T05:46:59;16.20;;;7.83;;
6354;SDS011;3210;48.708;9.030;2023-12-04T05:49:35;15.23;;;7.83;;
6354;SDS011;3210;48.708;9.030;2023-12-04T05:52:09;11.50;;;6.90;;
6354;SDS011;3210;48.708;9.030;2023-12-04T05:54:54;9.57;;;6.47;;
6354;SDS011;3210;48.708;9.030;2023-12-04T05:57:40;12.83;;;6.90;;
6354;SDS011;3210;48.708;9.030;2023-12-04T06:00:26;11.30;;;7.03;;
6354;SDS011;3210;48.708;9.030;2023-12-04T06:03:00;10.30;;;6.63;;
6354;SDS011;3210;48.708;9.030;2023-12-04T06:05:40;11.50;;;7.83;;
6354;SDS011;3210;48.708;9.030;2023-12-04T06:08:22;17.10;;;8.13;;
6354;SDS011;3210;48.708;9.030;2023-12-04T06:11:06;9.20;;;6.90;;
6354;SDS011;3210;48.708;9.030;2023-12-04T06:13:38;11.03;;;6.50;;
6354;SDS011;3210;48.708;9.030;2023-12-04T06:16:22;15.27;;;7.07;;
6354;SDS011;3210;48.708;9.030;2023-12-04T06:18:56;12.37;;;6.10;;
6354;SDS011;3210;48.708;9.030;2023-12-04T06:21:28;12.10;;;6.20;;
6354;SDS011;3210;48.708;9.030;2023-12-04T06:24:02;15.10;;;6.43;;
6354;SDS011;3210;48.708;9.030;2023-12-04T06:26:45;12.17;;;7.23;;
6354;SDS011;3210;48.708;9.030;2023-12-04T06:29:39;15.23;;;7.27;;
6354;SDS011;3210;48.708;9.030;2023-12-04T06:48:25;10.90;;;6.10;;
6354;SDS011;3210;48.708;9.030;2023-12-04T06:51:11;10.30;;;5.63;;
6354;SDS011;3210;48.708;9.030;2023-12-04T06:53:55;14.30;;;7.60;;
6354;SDS011;3210;48.708;9.030;2023-12-04T06:56:35;11.60;;;6.80;;
6354;SDS011;3210;48.708;9.030;2023-12-04T06:59:21;10.90;;;6.07;;
6354;SDS011;3210;48.708;9.030;2023-12-04T07:02:11;13.40;;;6.87;;
6354;SDS011;3210;48.708;9.030;2023-12-04T07:05:28;8.60;;;5.27;;
6354;SDS011;3210;48.708;9.030;2023-12-04T07:07:55;9.03;;;5.83;;
6354;SDS011;3210;48.708;9.030;2023-12-04T07:14:02;9.93;;;5.80;;
6354;SDS011;3210;48.708;9.030;2023-12-04T07:16:54;9.63;;;5.50;;
6354;SDS011;3210;48.708;9.030;2023-12-04T07:19:51;11.17;;;5.40;;
6354;SDS011;3210;48.708;9.030;2023-12-04T07:22:27;11.57;;;6.40;;
6354;SDS011;3210;48.708;9.030;2023-12-04T07:24:59;12.30;;;6.00;;
6354;SDS011;3210;48.708;9.030;2023-12-04T07:31:12;9.00;;;6.23;;
6354;SDS011;3210;48.708;9.030;2023-12-04T07:33:45;12.20;;;7.27;;
6354;SDS011;3210;48.708;9.030;2023-12-04T07:36:20;9.03;;;5.60;;
6354;SDS011;3210;48.708;9.030;2023-12-04T07:38:55;9.80;;;6.20;;
6354;SDS011;3210;48.708;9.030;2023-12-04T07:41:44;10.20;;;6.17;;
6354;SDS011;3210;48.708;9.030;2023-12-04T07:44:26;9.87;;;6.27;;
6354;SDS011;3210;48.708;9.030;2023-12-04T07:47:00;11.70;;;6.40;;
6354;SDS011;3210;48.708;9.030;2023-12-04T08:02:34;14.40;;;6.90;;
6354;SDS011;3210;48.708;9.030;2023-12-04T14:44:55;13.83;;;8.30;;
6354;SDS011;3210;48.708;9.030;2023-12-04T14:53:28;23.83;;;8.87;;
6354;SDS011;3210;48.708;9.030;2023-12-04T14:57:01;16.40;;;8.57;;
6354;SDS011;3210;48.708;9.030;2023-12-04T14:59:45;13.40;;;8.60;;
6354;SDS011;3210;48.708;9.030;2023-12-04T15:35:56;9.27;;;7.30;;
6354;SDS011;3210;48.708;9.030;2023-12-04T15:38:51;15.10;;;8.33;;
6354;SDS011;3210;48.708;9.030;2023-12-04T15:41:21;13.73;;;7.50;;
6354;SDS011;3210;48.708;9.030;2023-12-04T15:44:10;13.37;;;7.47;;
6354;SDS011;3210;48.708;9.030;2023-12-04T15:46:55;12.60;;;6.80;;
6354;SDS011;3210;48.708;9.030;2023-12-04T15:49:33;9.90;;;6.90;;
6354;SDS011;3210;48.708;9.030;2023-12-04T15:55:44;17.50;;;7.00;;
6354;SDS011;3210;48.708;9.030;2023-12-04T16:03:37;7.57;;;4.90;;
6354;SDS011;3210;48.708;9.030;2023-12-04T16:06:15;7.53;;;6.10;;
6354;SDS011;3210;48.708;9.030;2023-12-04T17:24:47;6.87;;;5.20;;
6354;SDS011;3210;48.708;9.030;2023-12-04T17:37:47;7.00;;;5.57;;
6354;SDS011;3210;48.708;9.030;2023-12-04T17:47:10;19.00;;;9.50;;
6354;SDS011;3210;48.708;9.030;2023-12-04T17:49:57;8.73;;;5.60;;
6354;SDS011;3210;48.708;9.030;2023-12-04T17:55:50;12.73;;;6.83;;
6354;SDS011;3210;48.708;9.030;2023-12-04T17:58:26;10.97;;;6.77;;
6354;SDS011;3210;48.708;9.030;2023-12-04T18:01:14;10.87;;;7.00;;
6354;SDS011;3210;48.708;9.030;2023-12-04T18:03:47;14.90;;;5.40;;
6354;SDS011;3210;48.708;9.030;2023-12-04T18:07:03;7.10;;;5.10;;
6354;SDS011;3210;48.708;9.030;2023-12-04T18:10:01;8.10;;;6.43;;
6354;SDS011;3210;48.708;9.030;2023-12-04T18:13:21;9.93;;;6.20;;
6354;SDS011;3210;48.708;9.030;2023-12-04T18:55:02;7.50;;;5.87;;
6354;SDS011;3210;48.708;9.030;2023-12-04T19:01:13;8.50;;;5.70;;
6354;SDS011;3210;48.708;9.030;2023-12-04T19:04:17;11.77;;;6.27;;
6354;SDS011;3210;48.708;9.030;2023-12-04T19:07:03;10.20;;;5.43;;
6354;SDS011;3210;48.708;9.030;2023-12-04T19:09:36;11.20;;;5.03;;
6354;SDS011;3210;48.708;9.030;2023-12-04T19:12:28;10.53;;;7.00;;
6354;SDS011;3210;48.708;9.030;2023-12-04T19:15:22;15.30;;;9.00;;
6354;SDS011;3210;48.708;9.030;2023-12-04T19:17:56;12.83;;;7.80;;
6354;SDS011;3210;48.708;9.030;2023-12-04T19:20:32;16.37;;;9.23;;
6354;SDS011;3210;48.708;9.030;2023-12-04T19:23:13;14.43;;;9.30;;
6354;SDS011;3210;48.708;9.030;2023-12-04T19:26:05;37.67;;;18.93;;
6354;SDS011;3210;48.708;9.030;2023-12-04T19:29:18;72.43;;;31.27;;
6354;SDS011;3210;48.708;9.030;2023-12-04T19:31:33;86.80;;;33.40;;
6354;SDS011;3210;48.708;9.030;2023-12-04T19:34:06;126.60;;;36.10;;
6354;SDS011;3210;48.708;9.030;2023-12-04T19:36:59;71.20;;;26.07;;
6354;SDS011;3210;48.708;9.030;2023-12-04T19:39:33;62.93;;;19.93;;
6354;SDS011;3210;48.708;9.030;2023-12-04T19:42:09;43.90;;;16.00;;
6354;SDS011;3210;48.708;9.030;2023-12-04T19:44:47;18.63;;;10.87;;
6354;SDS011;3210;48.708;9.030;2023-12-04T19:47:18;13.17;;;7.20;;
6354;SDS011;3210;48.708;9.030;2023-12-04T19:50:10;16.50;;;7.97;;
6354;SDS011;3210;48.708;9.030;2023-12-04T19:53:12;7.80;;;5.13;;
6354;SDS011;3210;48.708;9.030;2023-12-04T19:55:54;12.30;;;7.03;;
6354;SDS011;3210;48.708;9.030;2023-12-04T19:58:50;33.80;;;14.47;;
6354;SDS011;3210;48.708;9.030;2023-12-04T20:01:32;17.50;;;9.57;;
6354;SDS011;3210;48.708;9.030;2023-12-04T20:04:01;18.80;;;9.60;;
6354;SDS011;3210;48.708;9.030;2023-12-04T20:06:43;8.47;;;6.20;;
6354;SDS011;3210;48.708;9.030;2023-12-04T20:09:25;21.73;;;10.40;;
6354;SDS011;3210;48.708;9.030;2023-12-04T20:12:09;10.37;;;6.67;;
6354;SDS011;3210;48.708;9.030;2023-12-04T20:21:10;8.73;;;4.90;;
6354;SDS011;3210;48.708;9.030;2023-12-04T20:23:57;9.07;;;5.80;;
6354;SDS011;3210;48.708;9.030;2023-12-04T20:26:38;6.57;;;5.10;;
6354;SDS011;3210;48.708;9.030;2023-12-04T20:29:10;8.23;;;5.67;;
6354;SDS011;3210;48.708;9.030;2023-12-04T20:31:41;9.43;;;5.83;;
6354;SDS011;3210;48.708;9.030;2023-12-04T20:34:14;10.73;;;6.40;;
6354;SDS011;3210;48.708;9.030;2023-12-04T20:36:43;9.23;;;5.67;;
6354;SDS011;3210;48.708;9.030;2023-12-04T20:39:20;9.60;;;6.40;;
6354;SDS011;3210;48.708;9.030;2023-12-04T20:42:08;9.87;;;7.50;;
6354;SDS011;3210;48.708;9.030;2023-12-04T20:44:56;14.70;;;7.37;;
6354;SDS011;3210;48.708;9.030;2023-12-04T20:47:24;9.70;;;6.53;;
6354;SDS011;3210;48.708;9.030;2023-12-04T20:50:00;11.97;;;6.87;;
6354;SDS011;3210;48.708;9.030;2023-12-04T20:52:37;8.50;;;5.37;;
6354;SDS011;3210;48.708;9.030;2023-12-04T20:55:29;10.23;;;7.20;;
6354;SDS011;3210;48.708;9.030;2023-12-04T20:58:08;12.23;;;6.90;;
6354;SDS011;3210;48.708;9.030;2023-12-04T21:00:54;17.00;;;6.40;;
6354;SDS011;3210;48.708;9.030;2023-12-04T21:03:48;20.80;;;7.30;;
6354;SDS011;3210;48.708;9.030;2023-12-04T21:22:43;16.87;;;6.20;;
6354;SDS011;3210;48.708;9.030;2023-12-04T21:25:14;20.00;;;6.40;;
6354;SDS011;3210;48.708;9.030;2023-12-04T21:27:59;11.87;;;6.67;;
6354;SDS011;3210;48.708;9.030;2023-12-04T21:30:49;14.13;;;6.10;;
6354;SDS011;3210;48.708;9.030;2023-12-04T21:33:38;9.13;;;7.20;;
6354;SDS011;3210;48.708;9.030;2023-12-04T21:36:33;8.83;;;6.10;;
6354;SDS011;3210;48.708;9.030;2023-12-04T21:39:23;9.70;;;6.00;;
6354;SDS011;3210;48.708;9.030;2023-12-04T21:42:07;19.80;;;11.30;;
6354;SDS011;3210;48.708;9.030;2023-12-04T21:44:55;20.30;;;10.13;;
6354;SDS011;3210;48.708;9.030;2023-12-04T21:47:41;11.97;;;7.70;;
6354;SDS011;3210;48.708;9.030;2023-12-04T21:50:38;17.23;;;7.70;;
6354;SDS011;3210;48.708;9.030;2023-12-04T21:53:28;8.50;;;5.77;;
6354;SDS011;3210;48.708;9.030;2023-12-04T22:06:06;12.23;;;6.97;;
6354;SDS011;3210;48.708;9.030;2023-12-04T22:08:40;11.23;;;5.93;;
6354;SDS011;3210;48.708;9.030;2023-12-04T22:14:58;7.50;;;5.03;;
6354;SDS011;3210;48.708;9.030;2023-12-04T22:17:42;8.10;;;5.50;;
6354;SDS011;3210;48.708;9.030;2023-12-04T22:20:12;8.10;;;5.70;;
6354;SDS011;3210;48.708;9.030;2023-12-04T22:39:04;10.30;;;6.30;;
6354;SDS011;3210;48.708;9.030;2023-12-04T22:41:34;9.30;;;5.90;;
6354;SDS011;3210;48.708;9.030;2023-12-04T22:44:04;9.80;;;6.17;;
6354;SDS011;3210;48.708;9.030;2023-12-04T22:46:32;7.47;;;5.93;;
6354;SDS011;3210;48.708;9.030;2023-12-04T22:49:03;6.60;;;4.40;;
6354;SDS011;3210;48.708;9.030;2023-12-04T22:51:32;11.30;;;5.83;;
6354;SDS011;3210;48.708;9.030;2023-12-04T22:54:05;9.83;;;5.53;;
6354;SDS011;3210;48.708;9.030;2023-12-04T22:56:35;7.70;;;4.80;;
6354;SDS011;3210;48.708;9.030;2023-12-04T22:59:04;7.60;;;5.47;;
6354;SDS011;3210;48.708;9.030;2023-12-04T23:01:34;8.17;;;5.30;;
6354;SDS011;3210;48.708;9.030;2023-12-04T23:04:04;12.00;;;5.70;;
6354;SDS011;3210;48.708;9.030;2023-12-04T23:06:36;9.40;;;6.00;;
6354;SDS011;3210;48.708;9.030;2023-12-04T23:09:11;5.87;;;4.63;;
6354;SDS011;3210;48.708;9.030;2023-12-04T23:11:43;6.10;;;4.50;;
6354;SDS011;3210;48.708;9.030;2023-12-04T23:14:14;6.17;;;4.83;;
6354;SDS011;3210;48.708;9.030;2023-12-04T23:16:45;10.33;;;5.60;;
6354;SDS011;3210;48.708;9.030;2023-12-04T23:19:15;12.03;;;4.17;;
6354;SDS011;3210;48.708;9.030;2023-12-04T23:21:46;7.33;;;4.60;;
6354;SDS011;3210;48.708;9.030;2023-12-04T23:24:24;10.73;;;5.20;;
6354;SDS011;3210;48.708;9.030;2023-12-04T23:26:54;6.07;;;4.87;;
6354;SDS011;3210;48.708;9.030;2023-12-04T23:29:27;11.23;;;5.70;;
6354;SDS011;3210;48.708;9.030;2023-12-04T23:31:57;11.03;;;4.60;;
6354;SDS011;3210;48.708;9.030;2023-12-04T23:34:28;5.50;;;3.80;;
6354;SDS011;3210;48.708;9.030;2023-12-04T23:37:12;10.70;;;4.40;;
6354;SDS011;3210;48.708;9.030;2023-12-04T23:49:41;3.67;;;2.80;;
6354;SDS011;3210;48.708;9.030;2023-12-04T23:52:25;3.23;;;2.93;;
6354;SDS011;3210;48.708;9.030;2023-12-04T23:55:07;4.40;;;3.83;;
6354;SDS011;3210;48.708;9.030;2023-12-04T23:57:49;5.47;;;3.90;;
